Time;durP1;ratioP1;P1;durP2;ratioP2;P2;SDS_P1;SDS_P2;PMS_P1;PMS_P2;Temp;Humidity;BMP_temperature;BMP_pressure;BME280_temperature;BME280_humidity;BME280_pressure;Samples;Min_cycle;Max_cycle;Signal;HPM_P1;HPM_P2
2021/09/04 00:00:24;;;;;;;21.63;8.15;;;410.50;2355.20;;;;;;4890175;29;20029;-82
2021/09/04 00:02:50;;;;;;;19.55;8.95;;;410.40;2355.20;;;;;;4889078;29;20564;-77
2021/09/04 00:05:16;;;;;;;12.90;8.93;;;410.30;2355.20;;;;;;4886009;29;20028;-86
2021/09/04 00:07:42;;;;;;;12.75;8.25;;;410.50;2355.20;;;;;;4886763;29;20037;-86
2021/09/04 00:10:08;;;;;;;13.55;7.78;;;410.50;2355.20;;;;;;4880160;29;20064;-77
2021/09/04 00:12:34;;;;;;;13.55;8.80;;;435.30;2355.20;;;;;;4889986;29;20048;-83
2021/09/04 00:15:00;;;;;;;12.45;8.15;;;435.30;2355.20;;;;;;4907216;29;20031;-79
2021/09/04 00:17:26;;;;;;;12.65;7.20;;;435.30;2355.20;;;;;;4905815;29;20028;-79
2021/09/04 00:19:52;;;;;;;13.90;7.93;;;410.50;2355.20;;;;;;4904919;29;20371;-79
2021/09/04 00:22:18;;;;;;;14.82;8.23;;;410.00;2355.20;;;;;;4887847;29;20084;-79
2021/09/04 00:24:44;;;;;;;14.48;8.27;;;410.30;2355.20;;;;;;4907629;29;20025;-77
2021/09/04 00:27:09;;;;;;;11.57;7.68;;;410.20;2355.20;;;;;;4905571;29;20028;-82
2021/09/04 00:29:35;;;;;;;14.05;7.55;;;410.20;2355.20;;;;;;4887661;29;20487;-86
2021/09/04 00:32:02;;;;;;;11.80;7.22;;;410.30;2355.20;;;;;;4890783;29;20130;-81
2021/09/04 00:34:28;;;;;;;15.48;8.27;;;410.30;2355.20;;;;;;4909346;29;20020;-82
2021/09/04 00:36:53;;;;;;;15.85;7.47;;;410.50;2355.20;;;;;;4915336;29;20047;-85
2021/09/04 00:39:19;;;;;;;14.30;7.80;;;435.20;2355.20;;;;;;4909835;29;20044;-80
2021/09/04 00:41:45;;;;;;;11.00;7.70;;;410.50;2355.20;;;;;;4908991;29;20029;-83
2021/09/04 00:44:19;;;;;;;12.75;7.78;;;410.50;2355.20;;;;;;4914585;29;20043;-83
2021/09/04 00:46:45;;;;;;;17.23;8.25;;;410.50;2355.20;;;;;;4892638;29;20060;-82
2021/09/04 00:49:11;;;;;;;14.48;8.50;;;410.40;2355.20;;;;;;4908895;29;20059;-87
2021/09/04 00:51:37;;;;;;;13.07;8.23;;;410.40;2355.20;;;;;;4908754;29;20024;-86
2021/09/04 00:54:05;;;;;;;16.15;8.52;;;410.20;2355.20;;;;;;4894471;29;20130;-87
2021/09/04 00:56:31;;;;;;;14.85;7.93;;;410.20;2355.20;;;;;;4908636;29;20062;-83
2021/09/04 00:59:04;;;;;;;16.17;8.90;;;410.20;2355.20;;;;;;4890881;29;20499;-85
2021/09/04 01:01:31;;;;;;;15.30;8.45;;;410.00;2355.20;;;;;;4908017;29;20048;-78
2021/09/04 01:03:56;;;;;;;11.88;8.27;;;410.00;2355.20;;;;;;4910039;29;20489;-84
2021/09/04 01:06:22;;;;;;;12.00;8.35;;;409.90;2355.20;;;;;;4910170;29;20031;-84
2021/09/04 01:08:48;;;;;;;14.73;8.48;;;409.90;2355.20;;;;;;4909223;29;20099;-85
2021/09/04 01:11:15;;;;;;;13.95;8.52;;;409.90;2355.20;;;;;;4893155;29;20136;-83
2021/09/04 01:13:41;;;;;;;17.52;8.60;;;409.90;2355.20;;;;;;4907990;29;20028;-78
2021/09/04 01:16:06;;;;;;;19.08;8.73;;;409.80;2355.20;;;;;;4908347;29;20380;-82
2021/09/04 01:18:32;;;;;;;13.88;8.80;;;409.80;2355.20;;;;;;4889942;29;20126;-78
2021/09/04 01:21:05;;;;;;;12.02;7.97;;;409.70;2355.20;;;;;;4892096;29;20031;-82
2021/09/04 01:23:30;;;;;;;13.95;8.13;;;409.90;2355.20;;;;;;4908506;29;20025;-78
2021/09/04 01:26:01;;;;;;;14.57;7.35;;;409.90;2355.20;;;;;;4913728;29;20432;-76
2021/09/04 01:28:27;;;;;;;16.30;8.63;;;410.00;2355.20;;;;;;4893096;29;20039;-76
2021/09/04 01:30:52;;;;;;;11.48;7.45;;;410.00;2355.20;;;;;;4907516;29;20024;-76
2021/09/04 01:33:18;;;;;;;12.40;8.20;;;410.10;2355.20;;;;;;4906613;29;20016;-79
2021/09/04 01:35:44;;;;;;;16.05;8.23;;;410.00;2355.20;;;;;;4907769;29;20023;-76
2021/09/04 01:38:10;;;;;;;10.70;7.93;;;409.90;2355.20;;;;;;4910133;29;20028;-83
2021/09/04 01:40:35;;;;;;;12.18;8.40;;;409.90;2355.20;;;;;;4909095;29;20064;-78
2021/09/04 01:43:01;;;;;;;12.75;7.88;;;409.70;2355.20;;;;;;4907372;29;20052;-82
2021/09/04 01:45:27;;;;;;;14.13;8.10;;;409.70;2355.20;;;;;;4907069;29;20047;-77
2021/09/04 01:47:53;;;;;;;19.05;8.75;;;409.70;2355.20;;;;;;4889801;29;20368;-85
2021/09/04 01:50:18;;;;;;;17.35;9.40;;;409.60;2355.20;;;;;;4892101;29;20037;-77
2021/09/04 01:52:46;;;;;;;13.80;8.68;;;384.90;2329.60;;;;;;4908176;29;20031;-79
2021/09/04 01:55:15;;;;;;;15.38;7.63;;;384.90;2329.60;;;;;;4909087;29;20028;-76
2021/09/04 01:57:41;;;;;;;14.23;7.82;;;384.90;2329.60;;;;;;4890214;29;20027;-84
2021/09/04 02:00:09;;;;;;;14.57;8.05;;;384.90;2329.60;;;;;;4916063;29;20127;-78
2021/09/04 02:02:35;;;;;;;12.68;8.80;;;384.90;2329.60;;;;;;4932530;29;20039;-81
2021/09/04 02:05:01;;;;;;;13.35;7.88;;;384.80;2329.60;;;;;;4916081;29;20514;-81
2021/09/04 02:07:28;;;;;;;14.70;8.10;;;384.60;2329.60;;;;;;4890709;29;20103;-77
2021/09/04 02:09:53;;;;;;;13.27;7.75;;;384.50;2329.60;;;;;;4909072;29;20435;-78
2021/09/04 02:12:19;;;;;;;14.05;8.20;;;384.50;2329.60;;;;;;4905827;29;20040;-79
2021/09/04 02:14:45;;;;;;;14.10;8.82;;;384.50;2329.60;;;;;;4890371;29;20244;-77
2021/09/04 02:17:10;;;;;;;15.68;8.00;;;384.40;2329.60;;;;;;4890269;29;20060;-81
2021/09/04 02:19:36;;;;;;;14.98;8.82;;;384.30;2329.60;;;;;;4891322;29;20036;-80
2021/09/04 02:22:02;;;;;;;14.63;8.80;;;384.20;2329.60;;;;;;4926112;29;20024;-80
2021/09/04 02:24:29;;;;;;;17.60;8.48;;;384.30;2329.60;;;;;;4893354;29;20024;-80
2021/09/04 02:26:55;;;;;;;19.40;9.15;;;384.20;2329.60;;;;;;4889654;29;20064;-77
2021/09/04 02:29:21;;;;;;;15.13;8.27;;;384.20;2329.60;;;;;;4908872;29;20020;-78
2021/09/04 02:31:47;;;;;;;15.93;7.93;;;384.30;2329.60;;;;;;4907226;29;20099;-77
2021/09/04 02:34:13;;;;;;;14.48;8.35;;;384.20;2329.60;;;;;;4891157;29;20060;-77
2021/09/04 02:36:40;;;;;;;13.18;8.32;;;384.30;2329.60;;;;;;4905721;29;20052;-78
2021/09/04 02:39:05;;;;;;;15.05;8.23;;;384.40;2329.60;;;;;;4906637;29;20036;-81
2021/09/04 02:41:32;;;;;;;13.75;8.30;;;384.60;2329.60;;;;;;4906163;29;20103;-81
2021/09/04 02:43:58;;;;;;;13.38;7.80;;;384.70;2329.60;;;;;;4907987;29;20035;-81
2021/09/04 02:46:24;;;;;;;13.73;7.95;;;384.80;2329.60;;;;;;4889687;29;20028;-81
2021/09/04 02:48:49;;;;;;;20.08;8.50;;;384.60;2329.60;;;;;;4906456;29;20032;-77
2021/09/04 02:51:15;;;;;;;16.90;8.73;;;384.60;2329.60;;;;;;4907541;29;20028;-78
2021/09/04 02:53:41;;;;;;;13.77;8.65;;;384.60;2329.60;;;;;;4905337;29;20396;-81
2021/09/04 02:56:07;;;;;;;16.83;8.60;;;384.40;2329.60;;;;;;4906723;29;20031;-79
2021/09/04 02:58:32;;;;;;;15.68;8.88;;;384.60;2329.60;;;;;;4905981;29;20032;-80
2021/09/04 03:00:59;;;;;;;16.40;8.07;;;384.70;2329.60;;;;;;4907600;29;20032;-82
2021/09/04 03:03:25;;;;;;;13.60;9.38;;;384.70;2329.60;;;;;;4906410;29;20044;-79
2021/09/04 03:05:51;;;;;;;13.00;8.00;;;384.70;2329.60;;;;;;4905798;29;20031;-79
2021/09/04 03:08:17;;;;;;;15.57;8.73;;;384.70;2329.60;;;;;;4907147;29;20467;-81
2021/09/04 03:10:43;;;;;;;16.73;9.18;;;384.60;2329.60;;;;;;4905704;29;20123;-81
2021/09/04 03:13:09;;;;;;;18.73;9.38;;;384.50;2329.60;;;;;;4907178;29;20036;-80
2021/09/04 03:15:35;;;;;;;14.07;8.60;;;384.50;2329.60;;;;;;4905687;29;20036;-79
2021/09/04 03:18:00;;;;;;;16.95;9.23;;;384.50;2329.60;;;;;;4907250;29;20024;-80
2021/09/04 03:20:26;;;;;;;14.65;9.32;;;384.30;2329.60;;;;;;4906783;29;20035;-77
2021/09/04 03:22:52;;;;;;;12.70;8.05;;;384.20;2329.60;;;;;;4905322;29;20055;-77
2021/09/04 03:25:18;;;;;;;16.80;8.88;;;384.20;2329.60;;;;;;4890605;29;20397;-77
2021/09/04 03:27:43;;;;;;;15.57;9.00;;;384.30;2329.60;;;;;;4905766;29;20028;-78
2021/09/04 03:30:10;;;;;;;16.95;8.65;;;384.30;2329.60;;;;;;4908482;29;20051;-80
2021/09/04 03:32:36;;;;;;;15.73;8.98;;;384.40;2329.60;;;;;;4906284;29;20033;-78
2021/09/04 03:35:02;;;;;;;17.77;9.60;;;384.30;2329.60;;;;;;4888916;29;20434;-76
2021/09/04 03:37:28;;;;;;;12.88;8.27;;;384.10;2329.60;;;;;;4905712;29;20052;-76
2021/09/04 03:39:53;;;;;;;14.30;7.95;;;384.00;2329.60;;;;;;4910993;29;20462;-79
2021/09/04 03:42:19;;;;;;;12.48;8.00;;;384.00;2329.60;;;;;;4908032;29;20107;-76
2021/09/04 03:44:45;;;;;;;16.40;9.07;;;359.30;2329.60;;;;;;4895471;29;20039;-76
2021/09/04 03:47:11;;;;;;;14.80;8.60;;;359.30;2329.60;;;;;;4915442;29;20016;-79
2021/09/04 03:49:36;;;;;;;15.15;8.90;;;359.20;2329.60;;;;;;4918405;29;20033;-80
2021/09/04 03:52:02;;;;;;;17.63;8.85;;;359.10;2329.60;;;;;;4888439;29;20037;-80
2021/09/04 03:54:28;;;;;;;16.70;9.13;;;359.10;2329.60;;;;;;4889096;29;20032;-77
2021/09/04 03:56:54;;;;;;;16.35;10.45;;;359.00;2329.60;;;;;;4887577;29;21109;-80
2021/09/04 03:59:21;;;;;;;14.30;9.73;;;358.90;2329.60;;;;;;4907636;29;20028;-76
2021/09/04 04:01:48;;;;;;;18.45;10.50;;;359.00;2329.60;;;;;;4889794;29;20024;-78
2021/09/04 04:04:13;;;;;;;17.58;8.45;;;358.90;2329.60;;;;;;4913360;29;20103;-81
2021/09/04 04:06:39;;;;;;;23.17;9.95;;;358.80;2329.60;;;;;;4919960;29;20134;-77
2021/09/04 04:09:05;;;;;;;17.25;10.02;;;358.70;2329.60;;;;;;4892795;29;20044;-77
2021/09/04 04:11:30;;;;;;;26.05;9.55;;;358.50;2329.60;;;;;;4911042;29;20449;-79
2021/09/04 04:13:56;;;;;;;19.30;8.98;;;358.60;2329.60;;;;;;4908524;29;20051;-77
2021/09/04 04:16:22;;;;;;;15.38;8.20;;;358.50;2329.60;;;;;;4891976;29;20390;-79
2021/09/04 04:18:48;;;;;;;24.00;8.30;;;358.40;2329.60;;;;;;4909643;29;20456;-76
2021/09/04 04:21:13;;;;;;;14.65;8.25;;;358.50;2329.60;;;;;;4893822;29;20108;-79
2021/09/04 04:23:40;;;;;;;13.20;7.38;;;358.40;2329.60;;;;;;4910583;29;20024;-81
2021/09/04 04:26:06;;;;;;;15.80;9.18;;;358.50;2329.60;;;;;;4892633;29;20029;-80
2021/09/04 04:28:31;;;;;;;15.90;8.23;;;358.50;2329.60;;;;;;4909031;29;20029;-76
2021/09/04 04:30:57;;;;;;;16.23;9.32;;;358.50;2329.60;;;;;;4893606;29;20020;-78
2021/09/04 04:33:23;;;;;;;19.33;10.48;;;358.50;2329.60;;;;;;4907660;29;20027;-76
2021/09/04 04:35:49;;;;;;;19.15;9.45;;;358.70;2329.60;;;;;;4892876;29;20024;-80
2021/09/04 04:38:14;;;;;;;17.10;9.30;;;358.60;2329.60;;;;;;4907965;29;20032;-77
2021/09/04 04:40:40;;;;;;;20.45;10.85;;;358.60;2329.60;;;;;;4910399;29;20043;-79
2021/09/04 04:43:06;;;;;;;19.58;10.55;;;358.50;2329.60;;;;;;4907380;29;20036;-77
2021/09/04 04:45:32;;;;;;;19.73;10.63;;;358.50;2329.60;;;;;;4931609;29;20031;-77
2021/09/04 04:47:57;;;;;;;24.48;11.43;;;358.50;2329.60;;;;;;4910720;29;20098;-76
2021/09/04 04:50:24;;;;;;;27.10;13.10;;;358.60;2329.60;;;;;;4909730;29;20025;-81
2021/09/04 04:52:49;;;;;;;22.00;12.25;;;358.70;2329.60;;;;;;4890430;29;20547;-80
2021/09/04 04:55:15;;;;;;;21.35;12.32;;;358.80;2329.60;;;;;;4893103;29;20043;-77
2021/09/04 04:57:41;;;;;;;22.75;12.57;;;358.90;2329.60;;;;;;4910925;29;20372;-80
2021/09/04 05:00:08;;;;;;;20.75;13.02;;;359.10;2329.60;;;;;;4891908;29;20064;-77
2021/09/04 05:02:34;;;;;;;21.90;12.90;;;359.10;2329.60;;;;;;4909785;29;20024;-78
2021/09/04 05:04:59;;;;;;;21.40;13.15;;;359.20;2329.60;;;;;;4907674;29;20032;-78
2021/09/04 05:07:25;;;;;;;26.48;14.45;;;384.00;2329.60;;;;;;4908763;29;20450;-77
2021/09/04 05:09:51;;;;;;;25.50;14.48;;;384.10;2329.60;;;;;;4908936;29;20396;-78
2021/09/04 05:12:16;;;;;;;28.05;15.48;;;384.10;2329.60;;;;;;4890187;29;20130;-77
2021/09/04 05:14:42;;;;;;;31.45;14.57;;;384.30;2329.60;;;;;;4891935;29;20048;-77
2021/09/04 05:17:08;;;;;;;27.20;15.35;;;384.30;2329.60;;;;;;4934895;29;20111;-77
2021/09/04 05:19:34;;;;;;;27.95;15.38;;;384.60;2329.60;;;;;;4906777;29;20041;-76
2021/09/04 05:21:59;;;;;;;37.55;15.52;;;384.70;2329.60;;;;;;4907021;29;20024;-78
2021/09/04 05:24:26;;;;;;;24.58;13.40;;;384.70;2329.60;;;;;;4907796;29;20394;-78
2021/09/04 05:26:52;;;;;;;23.30;14.88;;;409.60;2355.20;;;;;;4890960;29;20029;-78
2021/09/04 05:29:18;;;;;;;27.45;13.57;;;409.70;2355.20;;;;;;4889378;29;20033;-77
2021/09/04 05:31:43;;;;;;;20.40;11.70;;;409.70;2355.20;;;;;;4908188;29;20021;-77
2021/09/04 05:34:09;;;;;;;18.80;11.27;;;409.80;2355.20;;;;;;4907427;29;20029;-77
2021/09/04 05:36:35;;;;;;;25.45;12.80;;;409.90;2355.20;;;;;;4905963;29;20479;-77
2021/09/04 05:39:01;;;;;;;21.88;12.65;;;410.00;2355.20;;;;;;4907999;29;20115;-78
2021/09/04 05:41:26;;;;;;;21.73;12.05;;;410.00;2355.20;;;;;;4889353;29;20029;-77
2021/09/04 05:43:52;;;;;;;23.38;11.88;;;410.20;2355.20;;;;;;4891753;29;20032;-77
2021/09/04 05:46:18;;;;;;;21.80;13.15;;;410.30;2355.20;;;;;;4890056;29;20028;-78
2021/09/04 05:48:44;;;;;;;23.42;12.52;;;410.40;2355.20;;;;;;4909622;29;20056;-78
2021/09/04 05:51:09;;;;;;;23.33;11.88;;;435.20;2355.20;;;;;;4890547;29;20036;-79
2021/09/04 05:53:38;;;;;;;22.55;12.52;;;435.30;2355.20;;;;;;4892079;29;20479;-77
2021/09/04 05:56:04;;;;;;;23.33;12.52;;;435.40;2355.20;;;;;;4908006;29;20024;-78
2021/09/04 05:58:29;;;;;;;23.95;13.25;;;435.40;2355.20;;;;;;4907323;29;20100;-77
2021/09/04 06:00:55;;;;;;;26.23;13.10;;;435.60;2355.20;;;;;;4906489;29;20040;-77
2021/09/04 06:03:21;;;;;;;19.70;11.68;;;435.70;2355.20;;;;;;4906966;29;20398;-79
2021/09/04 06:05:47;;;;;;;17.00;10.32;;;435.90;2355.20;;;;;;4907245;29;20095;-78
2021/09/04 06:08:12;;;;;;;19.77;12.02;;;436.00;2355.20;;;;;;4908789;29;20024;-79
2021/09/04 06:10:38;;;;;;;19.65;11.77;;;436.10;2355.20;;;;;;4908729;29;20124;-79
2021/09/04 06:13:04;;;;;;;23.38;10.60;;;460.80;2380.80;;;;;;4906737;29;20031;-77
2021/09/04 06:15:29;;;;;;;17.27;11.80;;;460.90;2380.80;;;;;;4907109;29;20024;-77
2021/09/04 06:17:55;;;;;;;21.98;10.35;;;461.00;2380.80;;;;;;4906761;29;20031;-76
2021/09/04 06:20:21;;;;;;;18.83;9.73;;;461.20;2380.80;;;;;;4905877;29;20438;-79
2021/09/04 06:22:47;;;;;;;16.85;9.70;;;461.30;2380.80;;;;;;4890903;29;20029;-77
2021/09/04 06:25:13;;;;;;;19.35;10.32;;;461.50;2380.80;;;;;;4904323;29;20144;-76
2021/09/04 06:27:39;;;;;;;18.45;11.00;;;461.50;2380.80;;;;;;4889735;29;20399;-77
2021/09/04 06:30:06;;;;;;;22.58;9.68;;;461.60;2380.80;;;;;;4906081;29;20025;-78
2021/09/04 06:32:32;;;;;;;14.77;9.45;;;486.40;2380.80;;;;;;4908020;29;20029;-77
2021/09/04 06:34:58;;;;;;;12.43;7.25;;;486.40;2380.80;;;;;;4891354;29;20031;-77
2021/09/04 06:37:23;;;;;;;13.00;8.07;;;486.50;2380.80;;;;;;4909142;29;20028;-78
2021/09/04 06:39:50;;;;;;;14.48;7.90;;;486.50;2380.80;;;;;;4895074;29;20048;-77
2021/09/04 06:42:15;;;;;;;14.30;8.88;;;486.70;2380.80;;;;;;4903338;29;20028;-77
2021/09/04 06:44:41;;;;;;;30.88;22.48;;;486.80;2380.80;;;;;;4913736;29;20119;-76
2021/09/04 06:47:07;;;;;;;22.02;14.48;;;486.80;2380.80;;;;;;4916221;29;20475;-77
2021/09/04 06:49:33;;;;;;;14.02;8.35;;;487.00;2355.20;;;;;;4915967;29;20032;-78
2021/09/04 06:51:58;;;;;;;13.50;8.38;;;487.10;2329.60;;;;;;4915836;29;20021;-78
2021/09/04 06:54:24;;;;;;;10.93;6.95;;;487.30;2329.60;;;;;;4899322;29;20028;-77
2021/09/04 06:56:51;;;;;;;10.57;5.85;;;512.00;2304.00;;;;;;4898727;29;20479;-77
2021/09/04 06:59:16;;;;;;;8.68;4.95;;;512.10;2278.40;;;;;;4899104;29;20410;-80
2021/09/04 07:01:42;;;;;;;8.90;4.13;;;512.30;2176.00;;;;;;4915681;29;20034;-77
2021/09/04 07:04:08;;;;;;;8.10;5.00;;;512.50;2073.60;;;;;;4898884;29;20028;-77
2021/09/04 07:06:34;;;;;;;14.88;6.43;;;512.70;2124.80;;;;;;4898834;29;20502;-77
2021/09/04 07:08:59;;;;;;;9.63;5.53;;;512.70;2201.60;;;;;;4915882;29;20052;-77
2021/09/04 07:11:25;;;;;;;9.48;6.07;;;512.90;2227.20;;;;;;4915893;29;20036;-77
2021/09/04 07:13:51;;;;;;;8.07;5.65;;;537.70;2227.20;;;;;;4899703;29;20078;-79
2021/09/04 07:16:16;;;;;;;14.05;5.70;;;537.80;2227.20;;;;;;4898788;29;20027;-77
2021/09/04 07:18:42;;;;;;;7.10;4.10;;;537.90;2176.00;;;;;;4905196;29;20497;-77
2021/09/04 07:21:08;;;;;;;9.98;5.00;;;538.00;2099.20;;;;;;4918268;29;20082;-79
2021/09/04 07:23:35;;;;;;;9.93;6.70;;;538.10;2073.60;;;;;;4917482;29;20043;-78
2021/09/04 07:26:01;;;;;;;14.93;8.93;;;538.30;2099.20;;;;;;4935264;29;20027;-78
2021/09/04 07:28:27;;;;;;;16.52;9.15;;;538.40;2099.20;;;;;;4917615;29;20443;-80
2021/09/04 07:30:53;;;;;;;8.50;5.65;;;563.20;2073.60;;;;;;4935124;29;20493;-79
2021/09/04 07:33:19;;;;;;;10.48;5.88;;;563.20;2022.40;;;;;;4917753;29;20026;-83
2021/09/04 07:35:45;;;;;;;14.15;9.20;;;563.30;2048.00;;;;;;4918264;29;20480;-78
2021/09/04 07:38:11;;;;;;;14.85;10.15;;;563.40;2073.60;;;;;;4917703;29;20059;-80
2021/09/04 07:40:37;;;;;;;17.05;10.65;;;563.50;2099.20;;;;;;4917675;29;20494;-78
2021/09/04 07:43:03;;;;;;;16.00;8.52;;;563.60;2099.20;;;;;;4909221;29;20115;-81
2021/09/04 07:45:29;;;;;;;20.95;11.55;;;563.60;2150.40;;;;;;4933098;29;20051;-81
2021/09/04 07:47:55;;;;;;;16.02;8.15;;;563.70;2099.20;;;;;;4929076;29;20102;-81
2021/09/04 07:50:21;;;;;;;10.98;6.55;;;563.80;2073.60;;;;;;4920157;29;20076;-81
2021/09/04 07:52:47;;;;;;;11.27;5.47;;;563.90;2073.60;;;;;;4910227;29;20090;-81
2021/09/04 07:55:13;;;;;;;10.05;5.47;;;563.90;2073.60;;;;;;4921596;29;20502;-78
2021/09/04 07:57:38;;;;;;;8.90;5.05;;;564.00;1996.80;;;;;;4921981;29;20020;-81
2021/09/04 08:00:05;;;;;;;12.77;6.13;;;564.10;1971.20;;;;;;4921317;29;20075;-80
2021/09/04 08:02:31;;;;;;;20.30;6.60;;;564.10;2022.40;;;;;;4921434;29;20019;-78
2021/09/04 08:04:57;;;;;;;12.77;6.57;;;564.10;1996.80;;;;;;4921417;29;20028;-79
2021/09/04 08:07:23;;;;;;;12.02;5.28;;;588.80;2022.40;;;;;;4921227;29;20089;-79
2021/09/04 08:09:49;;;;;;;10.15;5.78;;;588.80;2022.40;;;;;;4920901;29;20502;-81
2021/09/04 08:12:14;;;;;;;34.63;22.33;;;588.90;2022.40;;;;;;4920913;29;20051;-78
2021/09/04 08:14:40;;;;;;;7.88;4.43;;;589.00;1971.20;;;;;;4920983;29;20465;-78
2021/09/04 08:17:06;;;;;;;10.77;4.78;;;589.10;1894.40;;;;;;4920911;29;20036;-79
2021/09/04 08:19:31;;;;;;;6.45;3.78;;;589.20;1843.20;;;;;;4907946;29;20036;-79
2021/09/04 08:21:57;;;;;;;7.32;3.20;;;589.20;1817.60;;;;;;4920779;29;20051;-81
2021/09/04 08:24:23;;;;;;;7.90;3.63;;;589.30;1766.40;;;;;;4921088;29;20063;-80
2021/09/04 08:26:49;;;;;;;5.10;3.28;;;589.30;1740.80;;;;;;4907597;29;20031;-80
2021/09/04 08:29:14;;;;;;;7.32;3.75;;;589.30;1766.40;;;;;;4921164;29;20064;-79
2021/09/04 08:31:40;;;;;;;8.20;4.10;;;589.40;1792.00;;;;;;4920610;29;20105;-81
2021/09/04 08:34:06;;;;;;;8.13;3.75;;;589.40;1715.20;;;;;;4920556;29;20048;-81
2021/09/04 08:36:34;;;;;;;8.32;3.95;;;589.40;1740.80;;;;;;4937754;29;20027;-80
2021/09/04 08:39:00;;;;;;;6.28;3.63;;;589.50;1740.80;;;;;;4920460;29;20107;-81
2021/09/04 08:41:27;;;;;;;6.85;3.78;;;589.50;1715.20;;;;;;4937915;29;20071;-80
2021/09/04 08:43:53;;;;;;;6.03;4.22;;;589.50;1715.20;;;;;;4937418;29;20486;-79
2021/09/04 08:46:19;;;;;;;4.75;3.15;;;589.60;1715.20;;;;;;4937722;29;20107;-80
2021/09/04 08:48:47;;;;;;;5.95;3.40;;;589.70;1689.60;;;;;;4937444;29;20478;-81
2021/09/04 08:51:13;;;;;;;5.80;3.65;;;589.60;1715.20;;;;;;4920469;29;20043;-81
2021/09/04 08:53:40;;;;;;;6.53;3.42;;;589.60;1638.40;;;;;;4919961;29;20036;-83
2021/09/04 08:56:08;;;;;;;9.88;5.30;;;589.70;1715.20;;;;;;4920751;29;20190;-79
2021/09/04 08:58:35;;;;;;;7.03;4.22;;;614.40;1689.60;;;;;;4919710;29;20067;-80
2021/09/04 09:01:02;;;;;;;5.75;3.83;;;614.50;1689.60;;;;;;4920202;29;20482;-81
2021/09/04 09:03:30;;;;;;;9.63;4.28;;;614.50;1664.00;;;;;;4920174;29;20486;-79
2021/09/04 09:06:00;;;;;;;6.18;3.78;;;614.60;1612.80;;;;;;4929412;29;20024;-79
2021/09/04 09:08:28;;;;;;;7.18;3.85;;;614.60;1638.40;;;;;;4909659;29;20031;-77
2021/09/04 09:10:59;;;;;;;7.57;3.83;;;614.80;1638.40;;;;;;4890924;29;20131;-80
2021/09/04 09:13:26;;;;;;;6.03;3.63;;;614.80;1638.40;;;;;;4894464;29;20471;-80
2021/09/04 09:15:55;;;;;;;6.03;4.25;;;614.90;1664.00;;;;;;4914717;29;20020;-81
2021/09/04 09:18:28;;;;;;;10.45;4.85;;;615.00;1689.60;;;;;;4917836;29;20032;-80
2021/09/04 09:21:01;;;;;;;9.48;4.05;;;615.10;1587.20;;;;;;4911494;29;20449;-82
2021/09/04 09:23:27;;;;;;;10.75;4.25;;;615.20;1587.20;;;;;;4937000;29;20032;-82
2021/09/04 09:25:53;;;;;;;6.82;4.00;;;615.00;1587.20;;;;;;4920484;29;20087;-83
2021/09/04 09:28:22;;;;;;;10.20;4.32;;;615.00;1612.80;;;;;;4919837;29;20458;-84
2021/09/04 09:30:51;;;;;;;6.38;3.70;;;615.20;1587.20;;;;;;4937132;29;20489;-84
2021/09/04 09:33:22;;;;;;;7.45;4.05;;;615.20;1561.60;;;;;;4936828;29;20034;-84
2021/09/04 09:35:53;;;;;;;6.07;4.03;;;615.30;1587.20;;;;;;4920319;29;20051;-80
2021/09/04 09:38:24;;;;;;;6.50;4.53;;;640.10;1638.40;;;;;;4937263;29;20398;-81
2021/09/04 09:40:51;;;;;;;6.93;4.10;;;640.20;1510.40;;;;;;4919527;29;20494;-85
2021/09/04 09:43:26;;;;;;;6.00;3.70;;;640.10;1484.80;;;;;;4936979;29;20069;-80
2021/09/04 09:45:55;;;;;;;17.97;5.70;;;615.30;1612.80;;;;;;4919113;29;20119;-79
2021/09/04 09:48:29;;;;;;;6.47;3.75;;;615.20;1638.40;;;;;;4919024;29;20083;-81
2021/09/04 09:50:56;;;;;;;8.63;3.33;;;640.20;1536.00;;;;;;4901175;29;20028;-81
2021/09/04 09:53:24;;;;;;;8.23;4.18;;;640.50;1484.80;;;;;;4888194;29;20080;-81
2021/09/04 09:55:52;;;;;;;5.88;3.20;;;640.70;1459.20;;;;;;4905767;29;20036;-82
2021/09/04 09:58:19;;;;;;;8.10;3.05;;;640.90;1408.00;;;;;;4890459;29;20075;-83
2021/09/04 10:00:46;;;;;;;9.50;3.60;;;640.50;1382.40;;;;;;4907367;29;20104;-86
2021/09/04 10:03:13;;;;;;;6.50;3.42;;;640.20;1408.00;;;;;;4906837;29;20024;-81
2021/09/04 10:05:39;;;;;;;20.98;9.38;;;640.00;1510.40;;;;;;4915958;29;20027;-81
2021/09/04 10:08:05;;;;;;;14.25;7.88;;;640.10;1484.80;;;;;;4917377;29;20024;-82
2021/09/04 10:10:33;;;;;;;6.47;3.58;;;640.60;1433.60;;;;;;4915135;29;20519;-82
2021/09/04 10:13:00;;;;;;;6.95;3.58;;;640.30;1459.20;;;;;;4916900;29;20107;-83
2021/09/04 10:15:32;;;;;;;8.45;5.38;;;640.20;1484.80;;;;;;4900026;29;20076;-85
2021/09/04 10:18:01;;;;;;;7.15;3.90;;;640.40;1536.00;;;;;;4899327;29;20558;-80
2021/09/04 10:20:29;;;;;;;5.40;3.22;;;640.20;1510.40;;;;;;4906383;29;20058;-80
2021/09/04 10:22:57;;;;;;;7.70;3.40;;;640.30;1510.40;;;;;;4919367;29;20032;-80
2021/09/04 10:25:23;;;;;;;5.68;3.75;;;640.10;1510.40;;;;;;4918817;29;20071;-80
2021/09/04 10:27:50;;;;;;;5.38;3.55;;;640.30;1510.40;;;;;;4918986;29;20028;-85
2021/09/04 10:30:35;;;;;;;8.38;3.80;;;640.10;1510.40;;;;;;4936072;29;20470;-83
2021/09/04 10:33:03;;;;;;;6.32;3.65;;;640.00;1561.60;;;;;;4935908;29;20027;-84
2021/09/04 10:35:42;;;;;;;5.22;3.88;;;640.50;1536.00;;;;;;4918009;29;20052;-80
2021/09/04 10:38:20;;;;;;;7.93;3.92;;;640.70;1408.00;;;;;;4907109;29;20032;-83
2021/09/04 10:40:47;;;;;;;5.60;3.10;;;640.90;1408.00;;;;;;4919880;29;20375;-83
2021/09/04 10:43:17;;;;;;;6.38;3.53;;;640.90;1433.60;;;;;;4900613;29;20039;-83
2021/09/04 10:45:44;;;;;;;9.63;3.28;;;665.70;1433.60;;;;;;4883011;29;20044;-82
2021/09/04 10:48:15;;;;;;;5.85;3.58;;;666.10;1484.80;;;;;;4916356;29;20591;-83
2021/09/04 10:50:42;;;;;;;8.98;3.65;;;666.50;1408.00;;;;;;4894555;29;20029;-83
2021/09/04 10:53:08;;;;;;;7.38;4.38;;;691.30;1356.80;;;;;;4897780;29;20107;-82
2021/09/04 10:55:39;;;;;;;9.05;3.92;;;691.60;1331.20;;;;;;4881239;29;20131;-83
2021/09/04 10:58:15;;;;;;;5.90;3.85;;;691.70;1280.00;;;;;;4898260;29;20044;-83
2021/09/04 11:00:43;;;;;;;5.00;3.10;;;691.80;1331.20;;;;;;4906414;29;20167;-83
2021/09/04 11:03:17;;;;;;;4.60;3.40;;;692.10;1305.60;;;;;;4906246;29;20511;-83
2021/09/04 11:05:43;;;;;;;4.63;3.40;;;692.10;1280.00;;;;;;4904959;29;20039;-84
2021/09/04 11:08:10;;;;;;;5.53;3.65;;;716.90;1356.80;;;;;;4906255;29;20387;-84
2021/09/04 11:10:38;;;;;;;12.23;3.28;;;716.90;1305.60;;;;;;4913522;29;20144;-82
2021/09/04 11:13:05;;;;;;;4.80;3.38;;;;;;;;;;4888486;29;20033;-81
2021/09/04 11:15:31;;;;;;;5.55;3.38;;;717.30;1305.60;;;;;;4912511;29;20118;-83
2021/09/04 11:17:58;;;;;;;10.38;3.47;;;717.50;1356.80;;;;;;4898043;29;20493;-83
2021/09/04 11:20:24;;;;;;;6.40;3.42;;;717.10;1305.60;;;;;;4880197;29;20108;-80
2021/09/04 11:22:49;;;;;;;5.90;3.38;;;717.50;1280.00;;;;;;4896897;29;20032;-81
2021/09/04 11:25:19;;;;;;;8.95;3.83;;;717.70;1280.00;;;;;;4897261;29;20029;-81
2021/09/04 11:27:45;;;;;;;4.97;3.17;;;717.50;1177.60;;;;;;4879787;29;20071;-80
2021/09/04 11:30:15;;;;;;;12.98;3.85;;;717.60;1228.80;;;;;;4880307;29;20056;-81
2021/09/04 11:32:41;;;;;;;7.15;3.22;;;742.40;1177.60;;;;;;4879933;29;20483;-82
2021/09/04 11:35:07;;;;;;;5.55;3.50;;;717.70;1203.20;;;;;;4880266;29;20063;-81
2021/09/04 11:37:34;;;;;;;5.63;3.53;;;742.40;1152.00;;;;;;4879942;29;20028;-79
2021/09/04 11:40:14;;;;;;;8.88;5.18;;;742.50;1254.40;;;;;;4896760;29;20060;-81
2021/09/04 11:42:43;;;;;;;5.72;3.28;;;742.50;1280.00;;;;;;4880385;29;20036;-80
2021/09/04 11:45:31;;;;;;;5.95;3.50;;;742.60;1254.40;;;;;;4896667;29;20075;-80
2021/09/04 11:48:03;;;;;;;8.23;3.28;;;742.90;1177.60;;;;;;4880437;29;20033;-82
2021/09/04 11:50:31;;;;;;;5.13;3.47;;;742.60;1254.40;;;;;;4902686;29;20055;-80
2021/09/04 11:52:58;;;;;;;5.53;3.55;;;717.70;1203.20;;;;;;4916365;29;20024;-79
2021/09/04 11:55:25;;;;;;;6.30;3.67;;;717.70;1254.40;;;;;;4915933;29;20028;-81
2021/09/04 11:57:56;;;;;;;8.05;3.67;;;717.70;1254.40;;;;;;4913979;29;20036;-82
2021/09/04 12:00:30;;;;;;;8.73;3.38;;;717.40;1254.40;;;;;;4914627;29;20039;-82
2021/09/04 12:03:00;;;;;;;6.25;3.80;;;716.80;1254.40;;;;;;4917160;29;20032;-84
2021/09/04 12:05:31;;;;;;;7.82;3.80;;;692.10;1254.40;;;;;;4909297;29;20494;-82
2021/09/04 12:08:05;;;;;;;5.05;3.22;;;691.90;1280.00;;;;;;4889851;29;20041;-81